createdAt,value
2018-12-07T00:00:21.425Z,8.50
2018-12-07T00:00:53.997Z,8.50
2018-12-07T00:01:26.579Z,8.50
2018-12-07T00:01:59.150Z,8.50
2018-12-07T00:02:31.739Z,8.50
2018-12-07T00:03:04.436Z,8.50
2018-12-07T00:03:37.031Z,8.50
2018-12-07T00:04:09.649Z,8.50
2018-12-07T00:04:42.226Z,8.50
2018-12-07T00:05:14.792Z,8.50
2018-12-07T00:05:47.366Z,8.50
2018-12-07T00:06:19.939Z,8.50
2018-12-07T00:06:52.477Z,8.50
2018-12-07T00:07:25.038Z,8.60
2018-12-07T00:07:57.618Z,8.60
2018-12-07T00:08:30.201Z,8.60
2018-12-07T00:09:03.592Z,8.50
2018-12-07T00:09:36.162Z,8.60
2018-12-07T00:10:08.865Z,8.50
2018-12-07T00:10:41.419Z,8.50
2018-12-07T00:11:13.978Z,8.60
2018-12-07T00:11:46.539Z,8.60
2018-12-07T00:12:19.118Z,8.60
2018-12-07T00:12:51.803Z,8.60
2018-12-07T00:13:24.371Z,8.60
2018-12-07T00:13:56.911Z,8.60
2018-12-07T00:14:29.556Z,8.60
2018-12-07T00:15:02.150Z,8.60
2018-12-07T00:15:34.734Z,8.60
2018-12-07T00:16:07.294Z,8.60
2018-12-07T00:16:39.856Z,8.60
2018-12-07T00:17:12.548Z,8.60
2018-12-07T00:17:45.130Z,8.60
2018-12-07T00:18:17.715Z,8.60
2018-12-07T00:18:50.293Z,8.60
2018-12-07T00:19:22.972Z,8.60
2018-12-07T00:19:55.567Z,8.70
2018-12-07T00:20:28.138Z,8.70
2018-12-07T00:21:00.719Z,8.70
2018-12-07T00:21:33.291Z,8.70
2018-12-07T00:22:05.862Z,8.70
2018-12-07T00:22:38.426Z,8.70
2018-12-07T00:23:10.995Z,8.70
2018-12-07T00:23:43.557Z,8.70
2018-12-07T00:24:16.131Z,8.70
2018-12-07T00:24:48.706Z,8.70
2018-12-07T00:25:22.339Z,8.70
2018-12-07T00:25:54.910Z,8.70
2018-12-07T00:26:27.482Z,8.70
2018-12-07T00:27:00.071Z,8.70
2018-12-07T00:27:32.656Z,8.70
2018-12-07T00:28:05.224Z,8.70
2018-12-07T00:28:37.803Z,8.70
2018-12-07T00:29:10.416Z,8.70
2018-12-07T00:29:42.990Z,8.70
2018-12-07T00:30:15.566Z,8.70
2018-12-07T00:30:48.293Z,8.70
2018-12-07T00:31:20.865Z,8.60
2018-12-07T00:31:53.754Z,8.70
2018-12-07T00:32:26.314Z,8.70
2018-12-07T00:32:58.898Z,8.70
2018-12-07T00:33:31.491Z,8.70
2018-12-07T00:34:04.235Z,8.70
2018-12-07T00:34:36.797Z,8.70
2018-12-07T00:35:09.395Z,8.70
2018-12-07T00:35:41.974Z,8.70
2018-12-07T00:36:14.575Z,8.80
2018-12-07T00:36:47.134Z,8.80
2018-12-07T00:37:19.706Z,8.80
2018-12-07T00:37:52.253Z,8.80
2018-12-07T00:38:24.970Z,8.80
2018-12-07T00:38:57.554Z,8.80
2018-12-07T00:39:30.118Z,8.80
2018-12-07T00:40:02.875Z,8.90
2018-12-07T00:40:35.416Z,8.80
2018-12-07T00:41:07.977Z,8.80
2018-12-07T00:41:40.561Z,8.80
2018-12-07T00:42:13.116Z,8.80
2018-12-07T00:42:45.792Z,8.80
2018-12-07T00:43:18.412Z,8.80
2018-12-07T00:43:51.122Z,8.80
2018-12-07T00:44:23.693Z,8.80
2018-12-07T00:44:56.259Z,8.80
2018-12-07T00:45:28.818Z,8.80
2018-12-07T00:46:01.389Z,8.80
2018-12-07T00:46:33.988Z,8.80
2018-12-07T00:47:06.577Z,8.80
2018-12-07T00:47:39.139Z,8.80
2018-12-07T00:48:12.572Z,8.80
2018-12-07T00:48:45.143Z,8.80
2018-12-07T00:49:17.716Z,8.80
2018-12-07T00:49:50.297Z,8.80
2018-12-07T00:50:23.003Z,8.80
2018-12-07T00:50:55.570Z,8.80
2018-12-07T00:51:28.141Z,8.80
2018-12-07T00:52:00.695Z,8.80
2018-12-07T00:52:33.273Z,8.80
2018-12-07T00:53:05.854Z,8.80
2018-12-07T00:53:38.425Z,8.80
2018-12-07T00:54:10.972Z,8.80
2018-12-07T00:54:43.538Z,8.80
2018-12-07T00:55:27.560Z,8.80
2018-12-07T00:56:00.155Z,8.80
2018-12-07T00:56:32.734Z,8.80
2018-12-07T00:57:05.332Z,8.80
2018-12-07T00:57:37.912Z,8.80
2018-12-07T00:58:10.471Z,8.80
2018-12-07T00:58:43.029Z,8.90
2018-12-07T00:59:15.606Z,8.80
2018-12-07T00:59:48.183Z,8.80
2018-12-07T01:00:20.746Z,8.80
2018-12-07T01:00:53.326Z,8.80
2018-12-07T01:01:25.893Z,8.80
2018-12-07T01:01:58.464Z,8.90
2018-12-07T01:02:31.028Z,8.90
2018-12-07T01:03:04.458Z,8.90
2018-12-07T01:03:37.012Z,8.90
2018-12-07T01:04:09.569Z,8.90
2018-12-07T01:04:42.147Z,8.90
2018-12-07T01:05:14.714Z,8.90
2018-12-07T01:05:47.281Z,8.90
2018-12-07T01:06:19.852Z,8.90
2018-12-07T01:06:52.417Z,8.90
2018-12-07T01:07:24.971Z,8.90
2018-12-07T01:07:57.531Z,8.90
2018-12-07T01:08:30.120Z,8.90
2018-12-07T01:09:04.501Z,8.90
2018-12-07T01:09:37.074Z,9.00
2018-12-07T01:10:09.643Z,8.90
2018-12-07T01:10:42.201Z,8.90
2018-12-07T01:11:14.774Z,8.90
2018-12-07T01:11:47.324Z,8.90
2018-12-07T01:12:19.892Z,8.90
2018-12-07T01:12:52.463Z,9.00
2018-12-07T01:13:25.041Z,8.90
2018-12-07T01:13:57.638Z,8.90
2018-12-07T01:14:30.221Z,8.90
2018-12-07T01:15:02.922Z,8.90
2018-12-07T01:15:35.468Z,8.90
2018-12-07T01:16:08.074Z,8.90
2018-12-07T01:16:40.636Z,8.90
2018-12-07T01:17:13.236Z,8.90
2018-12-07T01:17:45.830Z,8.90
2018-12-07T01:18:18.384Z,9.00
2018-12-07T01:18:50.955Z,9.00
2018-12-07T01:19:23.568Z,9.00
2018-12-07T01:19:56.129Z,9.00
2018-12-07T01:20:28.705Z,9.00
2018-12-07T01:21:01.289Z,9.00
2018-12-07T01:21:33.855Z,9.00
2018-12-07T01:22:06.405Z,9.00
2018-12-07T01:22:38.970Z,9.00
2018-12-07T01:23:11.562Z,9.00
2018-12-07T01:23:44.133Z,9.00
2018-12-07T01:24:16.694Z,9.00
2018-12-07T01:24:49.296Z,9.00
2018-12-07T01:25:21.866Z,9.10
2018-12-07T01:25:54.437Z,9.10
2018-12-07T01:26:27.018Z,9.00
2018-12-07T01:26:59.594Z,9.10
2018-12-07T01:27:32.153Z,9.10
2018-12-07T01:28:04.720Z,9.10
2018-12-07T01:28:37.297Z,9.10
2018-12-07T01:29:09.885Z,9.10
2018-12-07T01:29:42.447Z,9.10
2018-12-07T01:30:15.058Z,9.10
2018-12-07T01:30:47.640Z,9.10
2018-12-07T01:31:20.256Z,9.10
2018-12-07T01:31:53.274Z,9.10
2018-12-07T01:32:25.845Z,9.10
2018-12-07T01:32:58.402Z,9.10
2018-12-07T01:33:30.978Z,9.10
2018-12-07T01:34:03.916Z,9.10
2018-12-07T01:34:36.498Z,9.10
2018-12-07T01:35:09.207Z,9.10
2018-12-07T01:35:41.798Z,9.20
2018-12-07T01:36:14.373Z,9.20
2018-12-07T01:36:46.951Z,9.20
2018-12-07T01:37:19.513Z,9.10
2018-12-07T01:37:52.090Z,9.20
2018-12-07T01:38:24.777Z,9.20
2018-12-07T01:38:57.347Z,9.10
2018-12-07T01:39:29.901Z,9.20
2018-12-07T01:40:03.396Z,9.20
2018-12-07T01:40:35.961Z,9.20
2018-12-07T01:41:08.582Z,9.20
2018-12-07T01:41:41.149Z,9.20
2018-12-07T01:42:13.761Z,9.20
2018-12-07T01:42:46.665Z,9.20
2018-12-07T01:43:19.230Z,9.20
2018-12-07T01:43:51.810Z,9.10
2018-12-07T01:44:24.382Z,9.10
2018-12-07T01:44:56.972Z,9.10
2018-12-07T01:45:29.544Z,9.10
2018-12-07T01:46:02.105Z,9.10
2018-12-07T01:46:34.694Z,9.10
2018-12-07T01:47:07.263Z,9.10
2018-12-07T01:47:46.161Z,9.10
2018-12-07T01:48:18.713Z,9.20
2018-12-07T01:48:51.298Z,9.20
2018-12-07T01:49:23.851Z,9.20
2018-12-07T01:49:56.404Z,9.20
2018-12-07T01:50:28.968Z,9.20
2018-12-07T01:51:01.546Z,9.20
2018-12-07T01:51:34.143Z,9.20
2018-12-07T01:52:06.740Z,9.20
2018-12-07T01:52:39.312Z,9.20
2018-12-07T01:53:11.890Z,9.20
2018-12-07T01:53:44.463Z,9.20
2018-12-07T01:54:17.042Z,9.20
2018-12-07T01:54:49.590Z,9.20
2018-12-07T01:55:22.166Z,9.20
2018-12-07T01:55:54.768Z,9.20
2018-12-07T01:56:27.314Z,9.20
2018-12-07T01:56:59.882Z,9.20
2018-12-07T01:57:32.517Z,9.20
2018-12-07T01:58:05.102Z,9.20
2018-12-07T01:58:37.678Z,9.20
2018-12-07T01:59:10.257Z,9.20
2018-12-07T01:59:42.818Z,9.20
2018-12-07T02:00:15.416Z,9.20
2018-12-07T02:00:48.019Z,9.20
2018-12-07T02:01:20.596Z,9.20
2018-12-07T02:01:53.155Z,9.20
2018-12-07T02:02:25.750Z,9.30
2018-12-07T02:02:58.326Z,9.20
2018-12-07T02:03:30.974Z,9.30
2018-12-07T02:04:03.768Z,9.30
2018-12-07T02:04:36.384Z,9.20
2018-12-07T02:05:09.049Z,9.20
2018-12-07T02:05:41.624Z,9.20
2018-12-07T02:06:14.186Z,9.20
2018-12-07T02:06:46.784Z,9.20
2018-12-07T02:07:28.777Z,9.20
2018-12-07T02:08:01.352Z,9.20
2018-12-07T02:08:33.922Z,9.20
2018-12-07T02:09:07.266Z,9.20
2018-12-07T02:09:39.830Z,9.20
2018-12-07T02:10:12.413Z,9.20
2018-12-07T02:10:44.972Z,9.20
2018-12-07T02:11:17.516Z,9.30
2018-12-07T02:11:50.095Z,9.30
2018-12-07T02:12:22.660Z,9.20
2018-12-07T02:12:55.240Z,9.20
2018-12-07T02:13:27.829Z,9.20
2018-12-07T02:14:00.393Z,9.30
2018-12-07T02:14:32.941Z,9.30
2018-12-07T02:15:06.090Z,9.30
2018-12-07T02:15:38.642Z,9.30
2018-12-07T02:16:11.218Z,9.30
2018-12-07T02:16:43.793Z,9.30
2018-12-07T02:17:16.426Z,9.20
2018-12-07T02:17:49.026Z,9.30
2018-12-07T02:18:21.589Z,9.30
2018-12-07T02:18:54.168Z,9.30
2018-12-07T02:19:26.763Z,9.30
2018-12-07T02:19:59.337Z,9.20
2018-12-07T02:20:31.914Z,9.20
2018-12-07T02:21:04.500Z,9.30
2018-12-07T02:21:37.075Z,9.30
2018-12-07T02:22:09.650Z,9.30
2018-12-07T02:22:42.227Z,9.30
2018-12-07T02:23:14.777Z,9.30
2018-12-07T02:23:47.344Z,9.30
2018-12-07T02:24:19.928Z,9.30
2018-12-07T02:24:52.490Z,9.30
2018-12-07T02:25:25.071Z,9.30
2018-12-07T02:25:57.674Z,9.30
2018-12-07T02:26:30.272Z,9.30
2018-12-07T02:27:02.861Z,9.30
2018-12-07T02:27:41.217Z,9.30
2018-12-07T02:28:13.808Z,9.30
2018-12-07T02:28:46.390Z,9.40
2018-12-07T02:29:18.993Z,9.30
2018-12-07T02:29:51.585Z,9.30
2018-12-07T02:30:24.171Z,9.30
2018-12-07T02:30:56.731Z,9.30
2018-12-07T02:31:29.314Z,9.30
2018-12-07T02:32:01.884Z,9.30
2018-12-07T02:32:34.448Z,9.30
2018-12-07T02:33:07.004Z,9.30
2018-12-07T02:33:39.564Z,9.30
2018-12-07T02:34:12.122Z,9.30
2018-12-07T02:34:44.673Z,9.30
2018-12-07T02:35:17.258Z,9.30
2018-12-07T02:35:49.971Z,9.30
2018-12-07T02:36:22.537Z,9.40
2018-12-07T02:36:55.123Z,9.30
2018-12-07T02:37:27.689Z,9.30
2018-12-07T02:38:00.256Z,9.30
2018-12-07T02:38:32.819Z,9.30
2018-12-07T02:39:06.028Z,9.30
2018-12-07T02:39:38.710Z,9.30
2018-12-07T02:40:11.298Z,9.30
2018-12-07T02:40:44.020Z,9.30
2018-12-07T02:41:16.579Z,9.40
2018-12-07T02:41:49.158Z,9.30
2018-12-07T02:42:21.725Z,9.30
2018-12-07T02:42:54.277Z,9.40
2018-12-07T02:43:26.834Z,9.30
2018-12-07T02:43:59.411Z,9.40
2018-12-07T02:44:31.991Z,9.40
2018-12-07T02:45:04.997Z,9.40
2018-12-07T02:45:37.564Z,9.40
2018-12-07T02:46:10.160Z,9.40
2018-12-07T02:46:42.864Z,9.40
2018-12-07T02:47:15.424Z,9.40
2018-12-07T02:47:47.993Z,9.40
2018-12-07T02:48:20.582Z,9.30
2018-12-07T02:48:53.388Z,9.30
2018-12-07T02:49:25.958Z,9.30
2018-12-07T02:49:58.562Z,9.40
2018-12-07T02:50:31.150Z,9.40
2018-12-07T02:51:03.846Z,9.40
2018-12-07T02:51:36.450Z,9.40
2018-12-07T02:52:09.027Z,9.40
2018-12-07T02:52:41.588Z,9.40
2018-12-07T02:53:14.156Z,9.40
2018-12-07T02:53:46.733Z,9.40
2018-12-07T02:54:19.291Z,9.40
2018-12-07T02:54:51.870Z,9.40
2018-12-07T02:55:24.430Z,9.40
2018-12-07T02:55:57.125Z,9.40
2018-12-07T02:56:29.713Z,9.40
2018-12-07T02:57:02.355Z,9.40
2018-12-07T02:57:34.979Z,9.40
2018-12-07T02:58:07.550Z,9.40
2018-12-07T02:58:40.092Z,9.40
2018-12-07T02:59:12.697Z,9.40
2018-12-07T02:59:45.269Z,9.40
2018-12-07T03:00:17.842Z,9.40
2018-12-07T03:00:50.422Z,9.40
2018-12-07T03:01:22.989Z,9.50
2018-12-07T03:01:55.565Z,9.50
2018-12-07T03:02:28.186Z,9.50
2018-12-07T03:03:00.749Z,9.50
2018-12-07T03:03:33.317Z,9.50
2018-12-07T03:04:05.892Z,9.50
2018-12-07T03:04:38.470Z,9.50
2018-12-07T03:05:11.048Z,9.50
2018-12-07T03:05:43.613Z,9.50
2018-12-07T03:06:16.184Z,9.40
2018-12-07T03:06:48.770Z,9.40
2018-12-07T03:07:21.331Z,9.40
2018-12-07T03:07:53.958Z,9.50
2018-12-07T03:08:26.882Z,9.40
2018-12-07T03:08:59.464Z,9.40
2018-12-07T03:09:32.178Z,9.40
2018-12-07T03:10:05.657Z,9.40
2018-12-07T03:10:38.247Z,9.50
2018-12-07T03:11:10.837Z,9.50
2018-12-07T03:11:43.458Z,9.50
2018-12-07T03:12:16.036Z,9.50
2018-12-07T03:12:48.610Z,9.50
2018-12-07T03:13:21.243Z,9.50
2018-12-07T03:13:53.820Z,9.50
2018-12-07T03:14:26.396Z,9.50
2018-12-07T03:14:58.998Z,9.50
2018-12-07T03:15:31.603Z,9.50
2018-12-07T03:16:04.233Z,9.50
2018-12-07T03:16:36.843Z,9.50
2018-12-07T03:17:09.441Z,9.50
2018-12-07T03:17:42.039Z,9.50
2018-12-07T03:18:27.710Z,9.50
2018-12-07T03:19:00.323Z,9.50
2018-12-07T03:19:32.904Z,9.50
2018-12-07T03:20:05.650Z,9.50
2018-12-07T03:20:38.249Z,9.50
2018-12-07T03:21:10.836Z,9.50
2018-12-07T03:21:43.422Z,9.50
2018-12-07T03:22:16.012Z,9.50
2018-12-07T03:22:48.605Z,9.50
2018-12-07T03:23:21.208Z,9.50
2018-12-07T03:23:53.830Z,9.50
2018-12-07T03:24:26.414Z,9.50
2018-12-07T03:24:58.998Z,9.50
2018-12-07T03:25:31.625Z,9.50
2018-12-07T03:26:04.225Z,9.50
2018-12-07T03:26:36.826Z,9.50
2018-12-07T03:27:09.413Z,9.50
2018-12-07T03:27:42.013Z,9.50
2018-12-07T03:28:14.604Z,9.60
2018-12-07T03:28:47.226Z,9.60
2018-12-07T03:29:19.849Z,9.60
2018-12-07T03:29:52.457Z,9.60
2018-12-07T03:30:25.060Z,9.60
2018-12-07T03:30:57.649Z,9.50
2018-12-07T03:31:30.278Z,9.50
2018-12-07T03:32:02.884Z,9.50
2018-12-07T03:32:35.623Z,9.50
2018-12-07T03:33:08.403Z,9.50
2018-12-07T03:33:41.024Z,9.50
2018-12-07T03:34:13.702Z,9.50
2018-12-07T03:34:46.309Z,9.50
2018-12-07T03:35:18.898Z,9.50
2018-12-07T03:35:51.492Z,9.50
2018-12-07T03:36:24.098Z,9.50
2018-12-07T03:36:56.669Z,9.50
2018-12-07T03:37:29.271Z,9.50
2018-12-07T03:38:01.869Z,9.40
2018-12-07T03:38:34.467Z,9.50
2018-12-07T03:39:07.036Z,9.50
2018-12-07T03:39:39.627Z,9.50
2018-12-07T03:40:12.385Z,9.50
2018-12-07T03:40:44.983Z,9.50
2018-12-07T03:41:17.571Z,9.40
2018-12-07T03:41:50.162Z,9.50
2018-12-07T03:42:23.414Z,9.40
2018-12-07T03:42:56.040Z,9.40
2018-12-07T03:43:28.609Z,9.40
2018-12-07T03:44:01.211Z,9.40
2018-12-07T03:44:33.872Z,9.40
2018-12-07T03:45:06.638Z,9.40
2018-12-07T03:45:39.241Z,9.40
2018-12-07T03:46:11.841Z,9.40
2018-12-07T03:46:44.422Z,9.50
2018-12-07T03:47:17.038Z,9.50
2018-12-07T03:47:49.691Z,9.50
2018-12-07T03:48:22.304Z,9.50
2018-12-07T03:48:54.909Z,9.50
2018-12-07T03:49:27.500Z,9.50
2018-12-07T03:50:00.537Z,9.50
2018-12-07T03:50:33.197Z,9.50
2018-12-07T03:51:05.796Z,9.50
2018-12-07T03:51:38.406Z,9.50
2018-12-07T03:52:11.124Z,9.50
2018-12-07T03:52:43.850Z,9.40
2018-12-07T03:53:16.449Z,9.40
2018-12-07T03:53:49.051Z,9.40
2018-12-07T03:54:21.658Z,9.40
2018-12-07T03:54:54.365Z,9.40
2018-12-07T03:55:26.959Z,9.40
2018-12-07T03:55:59.556Z,9.40
2018-12-07T03:56:32.187Z,9.40
2018-12-07T03:57:04.783Z,9.40
2018-12-07T03:57:37.490Z,9.40
2018-12-07T03:58:10.075Z,9.40
2018-12-07T03:58:42.696Z,9.40
2018-12-07T03:59:15.298Z,9.40
2018-12-07T03:59:47.894Z,9.40
2018-12-07T04:00:20.473Z,9.40
2018-12-07T04:00:53.070Z,9.40
2018-12-07T04:01:25.670Z,9.30
2018-12-07T04:01:58.754Z,9.40
2018-12-07T04:02:31.358Z,9.30
2018-12-07T04:03:03.965Z,9.30
2018-12-07T04:03:36.561Z,9.30
2018-12-07T04:04:09.165Z,9.30
2018-12-07T04:04:41.807Z,9.30
2018-12-07T04:05:14.443Z,9.30
2018-12-07T04:05:47.124Z,9.30
2018-12-07T04:06:20.027Z,9.30
2018-12-07T04:06:52.618Z,9.30
2018-12-07T04:07:25.250Z,9.30
2018-12-07T04:07:57.815Z,9.30
2018-12-07T04:08:30.407Z,9.30
2018-12-07T04:09:05.126Z,9.40
2018-12-07T04:09:37.698Z,9.40
2018-12-07T04:10:10.306Z,9.40
2018-12-07T04:10:42.926Z,9.40
2018-12-07T04:11:15.493Z,9.40
2018-12-07T04:11:48.074Z,9.30
2018-12-07T04:12:20.659Z,9.30
2018-12-07T04:12:53.263Z,9.30
2018-12-07T04:13:25.838Z,9.30
2018-12-07T04:13:58.431Z,9.30
2018-12-07T04:14:31.057Z,9.30
2018-12-07T04:15:04.145Z,9.30
2018-12-07T04:15:36.850Z,9.30
2018-12-07T04:16:09.449Z,9.30
2018-12-07T04:16:42.030Z,9.30
2018-12-07T04:17:14.610Z,9.30
2018-12-07T04:17:47.185Z,9.30
2018-12-07T04:18:19.808Z,9.30
2018-12-07T04:18:52.405Z,9.40
2018-12-07T04:19:24.996Z,9.30
2018-12-07T04:19:57.615Z,9.30
2018-12-07T04:20:30.196Z,9.30
2018-12-07T04:21:02.802Z,9.30
2018-12-07T04:21:35.377Z,9.30
2018-12-07T04:22:07.970Z,9.40
2018-12-07T04:22:40.551Z,9.40
2018-12-07T04:23:13.143Z,9.40
2018-12-07T04:23:45.780Z,9.40
2018-12-07T04:24:18.378Z,9.40
2018-12-07T04:24:50.975Z,9.40
2018-12-07T04:25:23.593Z,9.40
2018-12-07T04:25:56.188Z,9.40
2018-12-07T04:26:28.753Z,9.40
2018-12-07T04:27:01.339Z,9.40
2018-12-07T04:27:33.955Z,9.40
2018-12-07T04:28:06.545Z,9.40
2018-12-07T04:28:39.138Z,9.40
2018-12-07T04:29:11.757Z,9.40
2018-12-07T04:29:44.333Z,9.40
2018-12-07T04:30:25.045Z,9.40
2018-12-07T04:30:57.663Z,9.40
2018-12-07T04:31:30.241Z,9.40
2018-12-07T04:32:02.940Z,9.40
2018-12-07T04:32:35.623Z,9.40
2018-12-07T04:33:08.218Z,9.40
2018-12-07T04:33:41.434Z,9.40
2018-12-07T04:34:14.174Z,9.40
2018-12-07T04:34:46.798Z,9.30
2018-12-07T04:35:19.521Z,9.40
2018-12-07T04:35:52.096Z,9.40
2018-12-07T04:36:24.673Z,9.40
2018-12-07T04:36:57.272Z,9.40
2018-12-07T04:37:29.862Z,9.40
2018-12-07T04:38:02.477Z,9.30
2018-12-07T04:38:35.041Z,9.30
2018-12-07T04:39:07.628Z,9.40
2018-12-07T04:39:40.261Z,9.30
2018-12-07T04:40:12.848Z,9.30
2018-12-07T04:40:45.442Z,9.30
2018-12-07T04:41:18.036Z,9.30
2018-12-07T04:41:50.665Z,9.30
2018-12-07T04:42:23.363Z,9.30
2018-12-07T04:42:55.949Z,9.30
2018-12-07T04:43:28.535Z,9.40
2018-12-07T04:44:01.094Z,9.40
2018-12-07T04:44:33.653Z,9.40
2018-12-07T04:45:06.388Z,9.40
2018-12-07T04:45:38.970Z,9.40
2018-12-07T04:46:11.577Z,9.40
2018-12-07T04:46:44.159Z,9.40
2018-12-07T04:47:16.735Z,9.40
2018-12-07T04:47:49.319Z,9.40
2018-12-07T04:48:21.885Z,9.40
2018-12-07T04:48:54.484Z,9.40
2018-12-07T04:49:27.068Z,9.40
2018-12-07T04:49:59.654Z,9.40
2018-12-07T04:50:32.249Z,9.40
2018-12-07T04:51:04.834Z,9.40
2018-12-07T04:51:37.427Z,9.40
2018-12-07T04:52:10.019Z,9.40
2018-12-07T04:52:42.617Z,9.50
2018-12-07T04:53:15.329Z,9.50
2018-12-07T04:53:47.914Z,9.50
2018-12-07T04:54:20.531Z,9.50
2018-12-07T04:54:53.119Z,9.50
2018-12-07T04:55:25.702Z,9.50
2018-12-07T04:55:58.308Z,9.50
2018-12-07T04:56:30.884Z,9.50
2018-12-07T04:57:03.480Z,9.50
2018-12-07T04:57:36.125Z,9.50
2018-12-07T04:58:08.722Z,9.50
2018-12-07T04:58:41.304Z,9.50
2018-12-07T04:59:13.888Z,9.50
2018-12-07T04:59:46.497Z,9.50
2018-12-07T05:00:19.087Z,9.50
2018-12-07T05:00:51.688Z,9.50
2018-12-07T05:01:24.297Z,9.50
2018-12-07T05:01:56.882Z,9.50
2018-12-07T05:02:29.483Z,9.50
2018-12-07T05:03:02.061Z,9.50
2018-12-07T05:03:34.647Z,9.50
2018-12-07T05:04:07.247Z,9.40
2018-12-07T05:04:39.873Z,9.50
2018-12-07T05:05:12.714Z,9.50
2018-12-07T05:05:45.293Z,9.50
2018-12-07T05:06:17.882Z,9.50
2018-12-07T05:06:50.508Z,9.50
2018-12-07T05:07:23.103Z,9.50
2018-12-07T05:07:55.670Z,9.50
2018-12-07T05:08:28.250Z,9.50
2018-12-07T05:09:00.835Z,9.50
2018-12-07T05:09:33.410Z,9.50
2018-12-07T05:10:06.492Z,9.50
2018-12-07T05:10:39.076Z,9.50
2018-12-07T05:11:11.681Z,9.50
2018-12-07T05:11:44.273Z,9.50
2018-12-07T05:12:16.904Z,9.50
2018-12-07T05:12:49.501Z,9.50
2018-12-07T05:13:22.106Z,9.60
2018-12-07T05:13:54.708Z,9.50
2018-12-07T05:14:27.301Z,9.50
2018-12-07T05:14:59.885Z,9.60
2018-12-07T05:15:32.452Z,9.60
2018-12-07T05:16:05.024Z,9.60
2018-12-07T05:16:37.638Z,9.60
2018-12-07T05:17:10.221Z,9.60
2018-12-07T05:17:42.837Z,9.50
2018-12-07T05:18:15.434Z,9.50
2018-12-07T05:18:48.029Z,9.50
2018-12-07T05:19:20.637Z,9.60
2018-12-07T05:19:53.232Z,9.60
2018-12-07T05:20:25.831Z,9.60
2018-12-07T05:20:58.415Z,9.60
2018-12-07T05:21:30.999Z,9.60
2018-12-07T05:22:03.603Z,9.60
2018-12-07T05:22:36.183Z,9.60
2018-12-07T05:23:08.800Z,9.60
2018-12-07T05:23:41.349Z,9.50
2018-12-07T05:24:13.928Z,9.50
2018-12-07T05:24:46.522Z,9.60
2018-12-07T05:25:19.081Z,9.50
2018-12-07T05:25:51.656Z,9.50
2018-12-07T05:26:24.226Z,9.60
2018-12-07T05:26:57.076Z,9.50
2018-12-07T05:27:29.645Z,9.50
2018-12-07T05:28:02.203Z,9.60
2018-12-07T05:28:34.813Z,9.60
2018-12-07T05:29:07.391Z,9.60
2018-12-07T05:29:39.997Z,9.70
2018-12-07T05:30:12.599Z,9.60
2018-12-07T05:30:45.212Z,9.60
2018-12-07T05:31:17.831Z,9.70
2018-12-07T05:31:50.426Z,9.60
2018-12-07T05:32:23.034Z,9.70
2018-12-07T05:32:55.633Z,9.70
2018-12-07T05:33:28.254Z,9.60
2018-12-07T05:34:00.888Z,9.70
2018-12-07T05:34:33.491Z,9.60
2018-12-07T05:35:12.557Z,9.70
2018-12-07T05:35:45.145Z,9.70
2018-12-07T05:36:17.729Z,9.70
2018-12-07T05:36:50.316Z,9.70
2018-12-07T05:37:22.935Z,9.70
2018-12-07T05:37:55.528Z,9.70
2018-12-07T05:38:28.102Z,9.70
2018-12-07T05:39:00.739Z,9.70
2018-12-07T05:39:33.350Z,9.70
2018-12-07T05:40:06.186Z,9.70
2018-12-07T05:40:38.799Z,9.70
2018-12-07T05:41:11.409Z,9.70
2018-12-07T05:41:44.036Z,9.70
2018-12-07T05:42:16.617Z,9.70
2018-12-07T05:42:49.211Z,9.70
2018-12-07T05:43:21.910Z,9.70
2018-12-07T05:43:56.845Z,9.70
2018-12-07T05:44:29.426Z,9.70
2018-12-07T05:45:02.059Z,9.70
2018-12-07T05:45:34.654Z,9.70
2018-12-07T05:46:07.255Z,9.70
2018-12-07T05:46:39.870Z,9.70
2018-12-07T05:47:12.461Z,9.70
2018-12-07T05:47:45.063Z,9.70
2018-12-07T05:48:23.645Z,9.70
2018-12-07T05:48:52.403Z,9.70
2018-12-07T05:49:25.615Z,9.70
2018-12-07T05:49:58.200Z,9.70
2018-12-07T05:50:30.834Z,9.70
2018-12-07T05:51:03.464Z,9.70
2018-12-07T05:51:36.044Z,9.70
2018-12-07T05:52:08.670Z,9.70
2018-12-07T05:52:41.266Z,9.70
2018-12-07T05:53:13.824Z,9.70
2018-12-07T05:53:46.434Z,9.70
2018-12-07T05:54:19.020Z,9.70
2018-12-07T05:54:51.619Z,9.70
2018-12-07T05:55:24.224Z,9.80
2018-12-07T05:55:56.871Z,9.70
2018-12-07T05:56:29.456Z,9.70
2018-12-07T05:57:02.065Z,9.70
2018-12-07T05:57:34.632Z,9.80
2018-12-07T05:58:07.264Z,9.80
2018-12-07T05:58:39.871Z,9.80
2018-12-07T05:59:12.485Z,9.70
2018-12-07T05:59:45.066Z,9.70
2018-12-07T06:00:17.682Z,9.70
2018-12-07T06:00:50.277Z,9.70
2018-12-07T06:01:22.927Z,9.70
2018-12-07T06:01:55.555Z,9.70
2018-12-07T06:02:28.160Z,9.80
2018-12-07T06:03:00.754Z,9.70
2018-12-07T06:03:33.426Z,9.80
2018-12-07T06:04:05.989Z,9.70
2018-12-07T06:04:38.614Z,9.80
2018-12-07T06:05:11.274Z,9.70
2018-12-07T06:05:43.941Z,9.80
2018-12-07T06:06:16.506Z,9.80
2018-12-07T06:06:49.128Z,9.80
2018-12-07T06:07:21.717Z,9.80
2018-12-07T06:07:54.304Z,9.80
2018-12-07T06:08:26.878Z,9.80
2018-12-07T06:08:59.452Z,9.80
2018-12-07T06:09:32.035Z,9.80
2018-12-07T06:10:04.969Z,9.80
2018-12-07T06:10:37.565Z,9.80
2018-12-07T06:11:10.146Z,9.80
2018-12-07T06:11:42.746Z,9.80
2018-12-07T06:12:15.365Z,9.80
2018-12-07T06:12:47.941Z,9.80
2018-12-07T06:13:20.534Z,9.80
2018-12-07T06:13:53.123Z,9.80
2018-12-07T06:14:25.735Z,9.80
2018-12-07T06:14:58.322Z,9.80
2018-12-07T06:15:30.907Z,9.80
2018-12-07T06:16:03.489Z,9.80
2018-12-07T06:16:36.062Z,9.80
2018-12-07T06:17:08.670Z,9.80
2018-12-07T06:17:41.288Z,9.80
2018-12-07T06:18:13.873Z,9.80
2018-12-07T06:18:46.469Z,9.80
2018-12-07T06:19:19.086Z,9.80
2018-12-07T06:19:51.677Z,9.90
2018-12-07T06:20:24.277Z,9.90
2018-12-07T06:20:56.890Z,9.80
2018-12-07T06:21:29.515Z,9.90
2018-12-07T06:22:02.096Z,9.90
2018-12-07T06:22:34.681Z,9.90
2018-12-07T06:23:07.376Z,9.80
2018-12-07T06:23:39.991Z,9.80
2018-12-07T06:24:12.573Z,9.80
2018-12-07T06:24:45.177Z,9.80
2018-12-07T06:25:17.757Z,9.80
2018-12-07T06:25:50.346Z,9.90
2018-12-07T06:26:22.946Z,9.80
2018-12-07T06:26:55.545Z,9.80
2018-12-07T06:27:28.143Z,9.90
2018-12-07T06:28:00.722Z,9.90
2018-12-07T06:28:33.329Z,9.90
2018-12-07T06:29:05.936Z,9.80
2018-12-07T06:29:38.539Z,9.90
2018-12-07T06:30:11.185Z,9.90
2018-12-07T06:30:43.786Z,9.90
2018-12-07T06:31:16.399Z,9.90
2018-12-07T06:31:49.103Z,9.90
2018-12-07T06:32:21.702Z,9.90
2018-12-07T06:32:54.276Z,9.90
2018-12-07T06:33:26.871Z,9.90
2018-12-07T06:33:59.506Z,9.90
2018-12-07T06:34:32.105Z,9.90
2018-12-07T06:35:04.809Z,9.90
2018-12-07T06:35:37.414Z,9.90
2018-12-07T06:36:10.021Z,9.90
2018-12-07T06:36:42.604Z,9.90
2018-12-07T06:37:15.218Z,9.90
2018-12-07T06:37:47.807Z,9.90
2018-12-07T06:38:20.446Z,9.90
2018-12-07T06:38:53.029Z,9.90
2018-12-07T06:39:25.663Z,9.90
2018-12-07T06:39:58.355Z,9.90
2018-12-07T06:40:31.107Z,9.90
2018-12-07T06:41:03.757Z,9.90
2018-12-07T06:41:36.429Z,9.90
2018-12-07T06:42:09.077Z,9.90
2018-12-07T06:42:41.765Z,9.90
2018-12-07T06:43:14.474Z,9.90
2018-12-07T06:43:47.618Z,9.90
2018-12-07T06:44:20.196Z,9.90
2018-12-07T06:44:52.868Z,9.90
2018-12-07T06:45:25.450Z,10.00
2018-12-07T06:45:58.058Z,9.90
2018-12-07T06:46:30.654Z,10.00
2018-12-07T06:47:03.263Z,10.00
2018-12-07T06:47:35.880Z,10.00
2018-12-07T06:48:08.443Z,9.90
2018-12-07T06:48:41.033Z,10.00
2018-12-07T06:49:13.671Z,10.00
2018-12-07T06:49:46.260Z,10.00
2018-12-07T06:50:18.861Z,9.90
2018-12-07T06:50:51.447Z,9.90
2018-12-07T06:51:24.066Z,9.90
2018-12-07T06:51:56.691Z,9.90
2018-12-07T06:52:29.278Z,9.90
2018-12-07T06:53:01.877Z,9.90
2018-12-07T06:53:34.448Z,9.90
2018-12-07T06:54:07.069Z,9.90
2018-12-07T06:54:39.730Z,9.90
2018-12-07T06:55:12.327Z,9.90
2018-12-07T06:55:44.936Z,10.00
2018-12-07T06:56:17.758Z,10.00
2018-12-07T06:56:50.365Z,10.00
2018-12-07T06:57:22.967Z,10.00
2018-12-07T06:57:55.545Z,10.00
2018-12-07T06:58:28.170Z,10.00
2018-12-07T06:59:00.751Z,10.00
2018-12-07T06:59:33.394Z,9.90
2018-12-07T07:00:07.216Z,10.00
2018-12-07T07:00:39.832Z,9.90
2018-12-07T07:01:12.454Z,10.00
2018-12-07T07:01:45.058Z,9.90
2018-12-07T07:02:17.650Z,9.90
2018-12-07T07:02:50.339Z,10.00
2018-12-07T07:03:22.967Z,10.00
2018-12-07T07:03:55.608Z,10.00
2018-12-07T07:04:28.188Z,10.00
2018-12-07T07:05:01.272Z,9.90
2018-12-07T07:05:33.884Z,10.00
2018-12-07T07:06:06.458Z,10.00
2018-12-07T07:06:39.081Z,10.00
2018-12-07T07:07:11.671Z,10.00
2018-12-07T07:07:44.261Z,10.00
2018-12-07T07:08:16.961Z,10.00
2018-12-07T07:08:49.528Z,10.00
2018-12-07T07:09:22.168Z,10.00
2018-12-07T07:09:54.778Z,10.00
2018-12-07T07:10:27.413Z,10.00
2018-12-07T07:11:00.017Z,10.00
2018-12-07T07:11:32.624Z,10.00
2018-12-07T07:12:05.247Z,10.00
2018-12-07T07:12:37.852Z,10.00
2018-12-07T07:13:10.489Z,10.10
2018-12-07T07:13:43.084Z,10.10
2018-12-07T07:14:15.676Z,10.10
2018-12-07T07:14:48.299Z,10.10